sensor_id;sensor_type;location;lat;lon;timestamp;pressure;altitude;pressure_sealevel;temperature;humidity
53715;BME280;39608;55.630;37.864;2023-05-10T00:00:47;100503.63;;;11.73;31.54
53715;BME280;39608;55.630;37.864;2023-05-10T00:05:49;100511.25;;;11.66;31.81
53715;BME280;39608;55.630;37.864;2023-05-10T00:10:51;100497.44;;;11.52;32.86
53715;BME280;39608;55.630;37.864;2023-05-10T00:15:55;100508.59;;;11.51;32.23
53715;BME280;39608;55.630;37.864;2023-05-10T00:20:59;100515.66;;;11.46;31.88
53715;BME280;39608;55.630;37.864;2023-05-10T00:26:01;100504.50;;;11.48;32.41
53715;BME280;39608;55.630;37.864;2023-05-10T00:31:04;100503.94;;;11.56;32.46
53715;BME280;39608;55.630;37.864;2023-05-10T00:36:07;100511.03;;;11.52;32.40
53715;BME280;39608;55.630;37.864;2023-05-10T00:41:09;100496.91;;;11.45;32.52
53715;BME280;39608;55.630;37.864;2023-05-10T00:46:14;100504.78;;;11.46;33.39
53715;BME280;39608;55.630;37.864;2023-05-10T00:51:17;100511.88;;;11.37;34.26
53715;BME280;39608;55.630;37.864;2023-05-10T00:56:19;100516.78;;;11.35;33.83
53715;BME280;39608;55.630;37.864;2023-05-10T01:01:25;100504.00;;;11.36;32.98
53715;BME280;39608;55.630;37.864;2023-05-10T01:06:27;100495.56;;;11.42;32.27
53715;BME280;39608;55.630;37.864;2023-05-10T01:11:29;100496.09;;;11.55;31.84
53715;BME280;39608;55.630;37.864;2023-05-10T01:16:36;100507.41;;;11.72;32.39
53715;BME280;39608;55.630;37.864;2023-05-10T01:21:43;100500.88;;;11.78;31.34
53715;BME280;39608;55.630;37.864;2023-05-10T01:27:21;100505.69;;;11.92;31.50
53715;BME280;39608;55.630;37.864;2023-05-10T01:32:31;100500.25;;;11.92;31.71
53715;BME280;39608;55.630;37.864;2023-05-10T01:37:41;100491.59;;;11.90;31.39
53715;BME280;39608;55.630;37.864;2023-05-10T01:42:47;100485.09;;;11.86;32.44
53715;BME280;39608;55.630;37.864;2023-05-10T01:48:02;100496.75;;;11.91;32.34
53715;BME280;39608;55.630;37.864;2023-05-10T01:53:08;100491.59;;;11.90;32.58
53715;BME280;39608;55.630;37.864;2023-05-10T01:58:13;100491.84;;;11.93;33.00
53715;BME280;39608;55.630;37.864;2023-05-10T02:03:21;100492.69;;;11.94;32.14
53715;BME280;39608;55.630;37.864;2023-05-10T02:08:24;100498.91;;;12.00;32.16
53715;BME280;39608;55.630;37.864;2023-05-10T02:13:27;100490.44;;;12.06;31.96
53715;BME280;39608;55.630;37.864;2023-05-10T02:18:33;100501.28;;;12.11;32.62
53715;BME280;39608;55.630;37.864;2023-05-10T02:23:36;100499.69;;;12.05;31.63
53715;BME280;39608;55.630;37.864;2023-05-10T02:28:40;100484.50;;;11.99;31.65
53715;BME280;39608;55.630;37.864;2023-05-10T02:33:44;100497.53;;;12.02;32.06
53715;BME280;39608;55.630;37.864;2023-05-10T02:38:49;100488.56;;;12.02;31.81
53715;BME280;39608;55.630;37.864;2023-05-10T02:43:56;100478.22;;;12.04;33.27
53715;BME280;39608;55.630;37.864;2023-05-10T02:49:02;100489.97;;;11.94;34.54
53715;BME280;39608;55.630;37.864;2023-05-10T02:54:09;100488.88;;;11.85;36.35
53715;BME280;39608;55.630;37.864;2023-05-10T02:59:12;100478.09;;;11.69;35.77
53715;BME280;39608;55.630;37.864;2023-05-10T03:04:15;100483.53;;;11.69;34.90
53715;BME280;39608;55.630;37.864;2023-05-10T03:09:18;100489.50;;;11.66;35.55
53715;BME280;39608;55.630;37.864;2023-05-10T03:14:29;100476.50;;;11.63;35.98
53715;BME280;39608;55.630;37.864;2023-05-10T03:19:42;100472.94;;;11.62;35.31
53715;BME280;39608;55.630;37.864;2023-05-10T03:24:47;100472.41;;;11.60;35.59
53715;BME280;39608;55.630;37.864;2023-05-10T03:29:51;100479.16;;;11.68;36.66
53715;BME280;39608;55.630;37.864;2023-05-10T03:34:55;100479.94;;;11.79;36.65
53715;BME280;39608;55.630;37.864;2023-05-10T03:39:57;100474.72;;;11.93;36.90
53715;BME280;39608;55.630;37.864;2023-05-10T03:44:59;100475.50;;;12.04;36.71
53715;BME280;39608;55.630;37.864;2023-05-10T03:50:03;100478.63;;;12.26;36.25
53715;BME280;39608;55.630;37.864;2023-05-10T03:55:07;100485.38;;;12.34;35.63
53715;BME280;39608;55.630;37.864;2023-05-10T04:00:10;100481.50;;;12.45;35.48
53715;BME280;39608;55.630;37.864;2023-05-10T04:05:14;100481.66;;;12.59;35.77
53715;BME280;39608;55.630;37.864;2023-05-10T04:10:16;100486.22;;;12.69;34.79
53715;BME280;39608;55.630;37.864;2023-05-10T04:15:18;100477.38;;;12.82;35.09
53715;BME280;39608;55.630;37.864;2023-05-10T04:20:21;100468.00;;;12.94;34.87
53715;BME280;39608;55.630;37.864;2023-05-10T04:25:23;100470.66;;;13.04;35.08
53715;BME280;39608;55.630;37.864;2023-05-10T04:30:25;100475.41;;;13.17;35.12
53715;BME280;39608;55.630;37.864;2023-05-10T04:35:31;100463.81;;;13.36;33.22
53715;BME280;39608;55.630;37.864;2023-05-10T04:40:33;100465.31;;;13.47;33.61
53715;BME280;39608;55.630;37.864;2023-05-10T04:45:35;100456.56;;;13.50;34.24
53715;BME280;39608;55.630;37.864;2023-05-10T04:50:39;100466.72;;;13.64;34.08
53715;BME280;39608;55.630;37.864;2023-05-10T04:55:41;100463.91;;;13.74;34.45
53715;BME280;39608;55.630;37.864;2023-05-10T05:00:43;100461.25;;;13.88;33.69
53715;BME280;39608;55.630;37.864;2023-05-10T05:05:47;100463.47;;;14.05;35.47
53715;BME280;39608;55.630;37.864;2023-05-10T05:10:49;100459.56;;;14.11;35.51
53715;BME280;39608;55.630;37.864;2023-05-10T05:15:51;100451.88;;;14.32;35.70
53715;BME280;39608;55.630;37.864;2023-05-10T05:20:55;100453.97;;;14.54;35.31
53715;BME280;39608;55.630;37.864;2023-05-10T05:25:57;100440.81;;;14.76;32.81
53715;BME280;39608;55.630;37.864;2023-05-10T05:30:59;100443.41;;;15.00;33.58
53715;BME280;39608;55.630;37.864;2023-05-10T05:36:03;100435.44;;;15.31;32.72
53715;BME280;39608;55.630;37.864;2023-05-10T05:41:06;100439.66;;;15.51;32.91
53715;BME280;39608;55.630;37.864;2023-05-10T05:46:08;100443.22;;;15.80;32.80
53715;BME280;39608;55.630;37.864;2023-05-10T05:51:12;100433.78;;;15.86;31.96
53715;BME280;39608;55.630;37.864;2023-05-10T05:56:13;100429.00;;;15.78;31.76
53715;BME280;39608;55.630;37.864;2023-05-10T06:01:15;100417.69;;;16.07;30.35
53715;BME280;39608;55.630;37.864;2023-05-10T06:06:19;100434.53;;;16.37;30.30
53715;BME280;39608;55.630;37.864;2023-05-10T06:11:21;100428.66;;;16.52;30.13
53715;BME280;39608;55.630;37.864;2023-05-10T06:16:23;100428.31;;;16.76;29.80
53715;BME280;39608;55.630;37.864;2023-05-10T06:21:27;100432.84;;;16.81;26.89
53715;BME280;39608;55.630;37.864;2023-05-10T06:26:29;100427.16;;;16.91;25.01
53715;BME280;39608;55.630;37.864;2023-05-10T06:31:31;100423.13;;;16.98;24.51
53715;BME280;39608;55.630;37.864;2023-05-10T06:36:34;100418.03;;;17.14;24.50
53715;BME280;39608;55.630;37.864;2023-05-10T06:41:36;100409.34;;;17.20;24.40
53715;BME280;39608;55.630;37.864;2023-05-10T06:46:38;100414.59;;;17.48;23.52
53715;BME280;39608;55.630;37.864;2023-05-10T06:51:42;100410.28;;;17.56;23.45
53715;BME280;39608;55.630;37.864;2023-05-10T06:56:44;100408.47;;;17.51;23.00
53715;BME280;39608;55.630;37.864;2023-05-10T07:01:46;100402.72;;;17.70;22.57
53715;BME280;39608;55.630;37.864;2023-05-10T07:06:49;100407.25;;;18.27;22.52
53715;BME280;39608;55.630;37.864;2023-05-10T07:11:52;100406.44;;;19.01;22.03
53715;BME280;39608;55.630;37.864;2023-05-10T07:16:54;100392.81;;;19.43;21.18
53715;BME280;39608;55.630;37.864;2023-05-10T07:21:58;100392.44;;;19.74;21.29
53715;BME280;39608;55.630;37.864;2023-05-10T07:27:00;100390.81;;;19.52;21.20
53715;BME280;39608;55.630;37.864;2023-05-10T07:32:02;100382.06;;;19.80;20.82
53715;BME280;39608;55.630;37.864;2023-05-10T07:37:06;100383.09;;;19.45;21.17
53715;BME280;39608;55.630;37.864;2023-05-10T07:42:08;100387.69;;;19.32;21.01
53715;BME280;39608;55.630;37.864;2023-05-10T07:47:10;100378.13;;;19.60;21.14
53715;BME280;39608;55.630;37.864;2023-05-10T07:52:14;100369.00;;;20.10;20.38
53715;BME280;39608;55.630;37.864;2023-05-10T07:57:17;100358.66;;;20.07;20.00
53715;BME280;39608;55.630;37.864;2023-05-10T08:02:19;100364.88;;;19.83;19.93
53715;BME280;39608;55.630;37.864;2023-05-10T08:07:24;100361.25;;;19.91;20.89
53715;BME280;39608;55.630;37.864;2023-05-10T08:12:29;100355.22;;;21.02;19.64
53715;BME280;39608;55.630;37.864;2023-05-10T08:17:31;100351.03;;;22.14;18.44
53715;BME280;39608;55.630;37.864;2023-05-10T08:22:34;100352.22;;;22.58;18.31
53715;BME280;39608;55.630;37.864;2023-05-10T08:27:36;100347.13;;;22.44;18.02
53715;BME280;39608;55.630;37.864;2023-05-10T08:32:39;100343.56;;;22.59;17.30
53715;BME280;39608;55.630;37.864;2023-05-10T08:37:42;100344.34;;;22.44;17.76
53715;BME280;39608;55.630;37.864;2023-05-10T08:42:49;100331.13;;;21.64;17.85
53715;BME280;39608;55.630;37.864;2023-05-10T08:47:53;100336.75;;;21.56;18.13
53715;BME280;39608;55.630;37.864;2023-05-10T08:53:00;100328.41;;;22.53;18.01
53715;BME280;39608;55.630;37.864;2023-05-10T08:58:04;100329.25;;;22.25;17.60
53715;BME280;39608;55.630;37.864;2023-05-10T09:03:06;100325.06;;;21.34;17.75
53715;BME280;39608;55.630;37.864;2023-05-10T09:08:11;100327.72;;;21.30;18.38
53715;BME280;39608;55.630;37.864;2023-05-10T09:13:14;100312.47;;;20.25;18.04
53715;BME280;39608;55.630;37.864;2023-05-10T09:18:17;100304.78;;;19.64;19.00
53715;BME280;39608;55.630;37.864;2023-05-10T09:23:20;100305.25;;;19.66;19.11
53715;BME280;39608;55.630;37.864;2023-05-10T09:28:22;100303.28;;;19.66;18.68
53715;BME280;39608;55.630;37.864;2023-05-10T09:33:25;100298.28;;;20.60;19.46
53715;BME280;39608;55.630;37.864;2023-05-10T09:38:29;100293.31;;;22.09;17.71
53715;BME280;39608;55.630;37.864;2023-05-10T09:43:46;100284.56;;;22.23;17.29
53715;BME280;39608;55.630;37.864;2023-05-10T09:48:48;100274.78;;;23.25;17.03
53715;BME280;39608;55.630;37.864;2023-05-10T09:54:08;100282.25;;;24.69;17.44
53715;BME280;39608;55.630;37.864;2023-05-10T09:59:12;100270.09;;;23.65;16.64
53715;BME280;39608;55.630;37.864;2023-05-10T10:04:14;100264.69;;;22.97;17.33
53715;BME280;39608;55.630;37.864;2023-05-10T10:09:18;100256.22;;;22.10;17.57
53715;BME280;39608;55.630;37.864;2023-05-10T10:14:21;100253.91;;;22.12;17.40
53715;BME280;39608;55.630;37.864;2023-05-10T10:19:24;100246.72;;;22.24;17.08
53715;BME280;39608;55.630;37.864;2023-05-10T10:24:28;100234.63;;;21.15;17.88
53715;BME280;39608;55.630;37.864;2023-05-10T10:29:35;100250.09;;;20.66;18.53
53715;BME280;39608;55.630;37.864;2023-05-10T10:34:40;100247.19;;;20.50;18.17
53715;BME280;39608;55.630;37.864;2023-05-10T10:39:44;100239.41;;;20.90;18.05
53715;BME280;39608;55.630;37.864;2023-05-10T10:44:46;100229.97;;;21.44;17.83
53715;BME280;39608;55.630;37.864;2023-05-10T10:49:50;100226.94;;;21.49;17.39
53715;BME280;39608;55.630;37.864;2023-05-10T10:54:59;100207.34;;;21.66;18.11
53715;BME280;39608;55.630;37.864;2023-05-10T11:00:24;100218.50;;;21.86;18.17
53715;BME280;39608;55.630;37.864;2023-05-10T11:05:44;100217.56;;;22.58;18.43
53715;BME280;39608;55.630;37.864;2023-05-10T11:11:04;100207.41;;;22.46;18.02
53715;BME280;39608;55.630;37.864;2023-05-10T11:16:18;100174.66;;;21.68;17.78
53715;BME280;39608;55.630;37.864;2023-05-10T11:21:21;100202.28;;;20.99;18.48
53715;BME280;39608;55.630;37.864;2023-05-10T11:26:26;100200.41;;;21.03;18.67
53715;BME280;39608;55.630;37.864;2023-05-10T11:31:31;100184.97;;;20.87;18.66
53715;BME280;39608;55.630;37.864;2023-05-10T11:36:35;100178.00;;;21.33;17.90
53715;BME280;39608;55.630;37.864;2023-05-10T11:41:39;100181.06;;;21.73;17.60
53715;BME280;39608;55.630;37.864;2023-05-10T11:46:41;100176.38;;;21.45;17.65
53715;BME280;39608;55.630;37.864;2023-05-10T11:51:43;100167.25;;;21.00;18.00
53715;BME280;39608;55.630;37.864;2023-05-10T11:56:47;100165.59;;;20.71;18.34
53715;BME280;39608;55.630;37.864;2023-05-10T12:01:51;100163.59;;;20.59;19.18
53715;BME280;39608;55.630;37.864;2023-05-10T12:06:53;100166.94;;;20.52;18.59
53715;BME280;39608;55.630;37.864;2023-05-10T12:11:57;100157.66;;;20.32;19.02
53715;BME280;39608;55.630;37.864;2023-05-10T12:16:59;100152.38;;;20.14;19.24
53715;BME280;39608;55.630;37.864;2023-05-10T12:22:04;100147.91;;;20.22;19.53
53715;BME280;39608;55.630;37.864;2023-05-10T12:27:09;100145.63;;;20.12;19.97
53715;BME280;39608;55.630;37.864;2023-05-10T12:32:12;100145.16;;;20.10;20.12
53715;BME280;39608;55.630;37.864;2023-05-10T12:37:15;100140.47;;;19.98;20.20
53715;BME280;39608;55.630;37.864;2023-05-10T12:42:18;100145.84;;;19.94;20.26
53715;BME280;39608;55.630;37.864;2023-05-10T12:47:20;100121.44;;;19.59;19.94
53715;BME280;39608;55.630;37.864;2023-05-10T12:52:23;100138.41;;;19.61;19.98
53715;BME280;39608;55.630;37.864;2023-05-10T12:57:28;100120.31;;;19.60;19.88
53715;BME280;39608;55.630;37.864;2023-05-10T13:02:30;100116.38;;;19.61;19.78
53715;BME280;39608;55.630;37.864;2023-05-10T13:07:32;100129.03;;;19.75;19.94
53715;BME280;39608;55.630;37.864;2023-05-10T13:12:36;100134.34;;;19.80;19.97
53715;BME280;39608;55.630;37.864;2023-05-10T13:17:38;100106.97;;;19.38;20.26
53715;BME280;39608;55.630;37.864;2023-05-10T13:22:41;100125.03;;;19.39;21.18
53715;BME280;39608;55.630;37.864;2023-05-10T13:27:45;100121.84;;;19.37;20.42
53715;BME280;39608;55.630;37.864;2023-05-10T13:32:47;100121.94;;;19.28;20.63
53715;BME280;39608;55.630;37.864;2023-05-10T13:37:49;100101.41;;;19.25;20.69
53715;BME280;39608;55.630;37.864;2023-05-10T13:42:52;100120.31;;;19.27;20.95
53715;BME280;39608;55.630;37.864;2023-05-10T13:47:54;100116.31;;;18.82;21.39
53715;BME280;39608;55.630;37.864;2023-05-10T13:52:56;100108.19;;;18.43;21.83
53715;BME280;39608;55.630;37.864;2023-05-10T13:58:00;100108.84;;;18.40;21.92
53715;BME280;39608;55.630;37.864;2023-05-10T14:03:02;100114.13;;;18.24;22.15
53715;BME280;39608;55.630;37.864;2023-05-10T14:08:06;100101.91;;;18.13;21.99
53715;BME280;39608;55.630;37.864;2023-05-10T14:13:12;100106.44;;;18.09;22.28
53715;BME280;39608;55.630;37.864;2023-05-10T14:18:14;100110.63;;;18.15;22.41
53715;BME280;39608;55.630;37.864;2023-05-10T14:23:16;100102.38;;;18.15;22.41
53715;BME280;39608;55.630;37.864;2023-05-10T14:28:21;100107.72;;;18.11;22.40
53715;BME280;39608;55.630;37.864;2023-05-10T14:33:24;100088.56;;;18.03;22.82
53715;BME280;39608;55.630;37.864;2023-05-10T14:38:26;100082.47;;;17.97;22.86
53715;BME280;39608;55.630;37.864;2023-05-10T14:43:29;100102.72;;;18.13;23.06
53715;BME280;39608;55.630;37.864;2023-05-10T14:48:32;100099.16;;;18.13;23.05
53715;BME280;39608;55.630;37.864;2023-05-10T14:53:34;100081.09;;;18.12;23.04
53715;BME280;39608;55.630;37.864;2023-05-10T14:58:38;100094.03;;;18.33;22.89
53715;BME280;39608;55.630;37.864;2023-05-10T15:10:58;100086.53;;;17.82;23.22
53715;BME280;39608;55.630;37.864;2023-05-10T15:16:04;100050.56;;;17.75;23.46
53715;BME280;39608;55.630;37.864;2023-05-10T15:21:06;100085.88;;;17.94;23.78
53715;BME280;39608;55.630;37.864;2023-05-10T15:26:10;100090.97;;;18.04;23.43
53715;BME280;39608;55.630;37.864;2023-05-10T15:31:12;100083.22;;;18.06;23.92
53715;BME280;39608;55.630;37.864;2023-05-10T15:36:14;100078.53;;;18.07;23.38
53715;BME280;39608;55.630;37.864;2023-05-10T15:41:19;100073.72;;;18.04;23.53
53715;BME280;39608;55.630;37.864;2023-05-10T15:46:22;100071.63;;;18.01;23.52
53715;BME280;39608;55.630;37.864;2023-05-10T15:51:24;100078.31;;;17.91;24.19
53715;BME280;39608;55.630;37.864;2023-05-10T15:56:27;100067.22;;;17.70;23.67
53715;BME280;39608;55.630;37.864;2023-05-10T16:01:30;100068.69;;;17.58;24.01
53715;BME280;39608;55.630;37.864;2023-05-10T16:06:34;100064.53;;;17.52;24.46
53715;BME280;39608;55.630;37.864;2023-05-10T16:11:37;100077.75;;;17.59;23.92
53715;BME280;39608;55.630;37.864;2023-05-10T16:16:40;100063.44;;;17.44;24.45
53715;BME280;39608;55.630;37.864;2023-05-10T16:21:42;100071.03;;;17.39;24.94
53715;BME280;39608;55.630;37.864;2023-05-10T16:26:46;100074.25;;;17.41;24.91
53715;BME280;39608;55.630;37.864;2023-05-10T16:31:48;100076.50;;;17.39;25.06
53715;BME280;39608;55.630;37.864;2023-05-10T16:36:50;100062.84;;;17.21;25.68
53715;BME280;39608;55.630;37.864;2023-05-10T16:41:54;100074.94;;;17.20;26.32
53715;BME280;39608;55.630;37.864;2023-05-10T16:46:56;100061.59;;;17.10;25.71
53715;BME280;39608;55.630;37.864;2023-05-10T16:51:58;100065.94;;;17.11;25.52
53715;BME280;39608;55.630;37.864;2023-05-10T16:57:02;100077.69;;;17.20;25.99
53715;BME280;39608;55.630;37.864;2023-05-10T17:02:04;100073.66;;;17.18;25.84
53715;BME280;39608;55.630;37.864;2023-05-10T17:07:06;100067.53;;;17.12;26.81
53715;BME280;39608;55.630;37.864;2023-05-10T17:12:10;100079.78;;;17.15;26.50
53715;BME280;39608;55.630;37.864;2023-05-10T17:17:12;100081.72;;;17.05;27.09
53715;BME280;39608;55.630;37.864;2023-05-10T17:22:15;100070.97;;;16.91;27.94
53715;BME280;39608;55.630;37.864;2023-05-10T17:27:18;100072.72;;;16.87;27.64
53715;BME280;39608;55.630;37.864;2023-05-10T17:32:21;100073.03;;;16.77;28.23
53715;BME280;39608;55.630;37.864;2023-05-10T17:37:24;100088.19;;;16.83;28.20
53715;BME280;39608;55.630;37.864;2023-05-10T17:42:28;100088.00;;;16.80;28.41
53715;BME280;39608;55.630;37.864;2023-05-10T17:47:30;100090.13;;;16.74;29.03
53715;BME280;39608;55.630;37.864;2023-05-10T17:52:32;100095.28;;;16.67;29.92
53715;BME280;39608;55.630;37.864;2023-05-10T17:57:36;100100.75;;;16.67;29.40
53715;BME280;39608;55.630;37.864;2023-05-10T18:02:39;100106.69;;;16.60;30.02
53715;BME280;39608;55.630;37.864;2023-05-10T18:07:42;100106.03;;;16.54;30.21
53715;BME280;39608;55.630;37.864;2023-05-10T18:12:47;100110.09;;;16.57;29.48
53715;BME280;39608;55.630;37.864;2023-05-10T18:17:50;100095.09;;;16.46;31.11
53715;BME280;39608;55.630;37.864;2023-05-10T18:22:54;100092.16;;;16.42;28.24
53715;BME280;39608;55.630;37.864;2023-05-10T18:27:59;100109.75;;;16.58;29.74
53715;BME280;39608;55.630;37.864;2023-05-10T18:33:02;100066.09;;;16.27;29.74
53715;BME280;39608;55.630;37.864;2023-05-10T18:38:04;100098.28;;;16.39;29.61
53715;BME280;39608;55.630;37.864;2023-05-10T18:43:09;100053.31;;;16.14;28.53
53715;BME280;39608;55.630;37.864;2023-05-10T18:48:11;100113.09;;;16.38;28.39
53715;BME280;39608;55.630;37.864;2023-05-10T18:53:13;100078.09;;;16.08;29.36
53715;BME280;39608;55.630;37.864;2023-05-10T18:58:19;100110.16;;;16.17;29.01
53715;BME280;39608;55.630;37.864;2023-05-10T19:03:21;100109.16;;;16.13;28.80
53715;BME280;39608;55.630;37.864;2023-05-10T19:08:24;100110.13;;;16.08;28.84
53715;BME280;39608;55.630;37.864;2023-05-10T19:13:31;100114.31;;;16.05;28.90
53715;BME280;39608;55.630;37.864;2023-05-10T19:18:34;100111.25;;;16.07;28.62
53715;BME280;39608;55.630;37.864;2023-05-10T19:23:36;100111.34;;;15.93;28.61
53715;BME280;39608;55.630;37.864;2023-05-10T19:28:43;100110.91;;;16.00;30.28
53715;BME280;39608;55.630;37.864;2023-05-10T19:33:45;100111.53;;;15.97;29.06
53715;BME280;39608;55.630;37.864;2023-05-10T19:38:47;100104.91;;;15.89;29.10
53715;BME280;39608;55.630;37.864;2023-05-10T19:43:52;100103.75;;;15.81;29.10
53715;BME280;39608;55.630;37.864;2023-05-10T19:48:54;100115.03;;;15.80;28.96
53715;BME280;39608;55.630;37.864;2023-05-10T19:53:56;100101.41;;;15.66;29.82
53715;BME280;39608;55.630;37.864;2023-05-10T19:59:00;100120.59;;;15.74;29.24
53715;BME280;39608;55.630;37.864;2023-05-10T20:04:03;100124.41;;;15.65;29.40
53715;BME280;39608;55.630;37.864;2023-05-10T20:09:05;100125.50;;;15.64;29.24
53715;BME280;39608;55.630;37.864;2023-05-10T20:14:09;100089.47;;;15.53;28.92
53715;BME280;39608;55.630;37.864;2023-05-10T20:19:11;100107.28;;;15.50;28.84
53715;BME280;39608;55.630;37.864;2023-05-10T20:24:13;100120.81;;;15.55;28.73
53715;BME280;39608;55.630;37.864;2023-05-10T20:29:17;100109.56;;;15.57;29.23
53715;BME280;39608;55.630;37.864;2023-05-10T20:34:19;100110.13;;;15.45;28.98
53715;BME280;39608;55.630;37.864;2023-05-10T20:39:21;100119.66;;;15.48;28.78
53715;BME280;39608;55.630;37.864;2023-05-10T20:44:24;100117.97;;;15.38;29.26
53715;BME280;39608;55.630;37.864;2023-05-10T20:49:27;100108.59;;;15.30;29.13
53715;BME280;39608;55.630;37.864;2023-05-10T20:54:29;100114.75;;;15.36;29.56
53715;BME280;39608;55.630;37.864;2023-05-10T20:59:32;100119.59;;;15.39;29.14
53715;BME280;39608;55.630;37.864;2023-05-10T21:04:34;100116.19;;;15.33;29.56
53715;BME280;39608;55.630;37.864;2023-05-10T21:09:36;100116.94;;;15.25;29.18
53715;BME280;39608;55.630;37.864;2023-05-10T21:14:40;100123.56;;;15.33;29.04
53715;BME280;39608;55.630;37.864;2023-05-10T21:19:43;100104.50;;;15.19;28.96
53715;BME280;39608;55.630;37.864;2023-05-10T21:24:45;100117.38;;;15.18;29.25
53715;BME280;39608;55.630;37.864;2023-05-10T21:29:52;100114.31;;;15.20;30.09
53715;BME280;39608;55.630;37.864;2023-05-10T21:35:10;100108.28;;;15.09;29.97
53715;BME280;39608;55.630;37.864;2023-05-10T21:40:12;100104.25;;;15.06;30.19
53715;BME280;39608;55.630;37.864;2023-05-10T21:45:18;100100.59;;;15.11;29.64
53715;BME280;39608;55.630;37.864;2023-05-10T21:50:20;100107.19;;;15.10;29.75
53715;BME280;39608;55.630;37.864;2023-05-10T21:55:22;100090.53;;;14.98;30.79
53715;BME280;39608;55.630;37.864;2023-05-10T22:00:26;100110.72;;;15.11;29.93
53715;BME280;39608;55.630;37.864;2023-05-10T22:05:28;100104.41;;;15.01;30.30
53715;BME280;39608;55.630;37.864;2023-05-10T22:10:30;100108.44;;;15.04;29.65
53715;BME280;39608;55.630;37.864;2023-05-10T22:15:33;100110.72;;;15.11;29.71
53715;BME280;39608;55.630;37.864;2023-05-10T22:20:35;100114.75;;;15.13;29.98
53715;BME280;39608;55.630;37.864;2023-05-10T22:25:37;100116.84;;;15.16;29.73
53715;BME280;39608;55.630;37.864;2023-05-10T22:30:41;100103.66;;;15.10;29.97
53715;BME280;39608;55.630;37.864;2023-05-10T22:35:44;100112.34;;;15.12;30.08
53715;BME280;39608;55.630;37.864;2023-05-10T22:40:46;100103.81;;;15.13;29.99
53715;BME280;39608;55.630;37.864;2023-05-10T22:45:49;100109.28;;;15.13;29.92
53715;BME280;39608;55.630;37.864;2023-05-10T22:50:52;100099.19;;;15.14;29.91
53715;BME280;39608;55.630;37.864;2023-05-10T22:55:54;100097.25;;;15.14;29.79
53715;BME280;39608;55.630;37.864;2023-05-10T23:00:57;100098.25;;;15.18;29.79
53715;BME280;39608;55.630;37.864;2023-05-10T23:05:59;100086.75;;;15.08;29.92
53715;BME280;39608;55.630;37.864;2023-05-10T23:11:02;100102.53;;;15.11;29.94
53715;BME280;39608;55.630;37.864;2023-05-10T23:16:06;100097.50;;;15.04;30.08
53715;BME280;39608;55.630;37.864;2023-05-10T23:21:08;100104.09;;;15.03;30.21
